sensor_id;sensor_type;location;lat;lon;timestamp;P1;durP1;ratioP1;P2;durP2;ratioP2
7029;SDS011;3556;53.500;10.176;2023-03-01T00:01:10;15.80;;;9.20;;
7029;SDS011;3556;53.500;10.176;2023-03-01T00:03:38;14.90;;;8.70;;
7029;SDS011;3556;53.500;10.176;2023-03-01T00:06:03;13.13;;;9.00;;
7029;SDS011;3556;53.500;10.176;2023-03-01T00:08:30;11.70;;;8.43;;
7029;SDS011;3556;53.500;10.176;2023-03-01T00:11:04;12.13;;;9.17;;
7029;SDS011;3556;53.500;10.176;2023-03-01T00:13:36;19.73;;;8.90;;
7029;SDS011;3556;53.500;10.176;2023-03-01T00:16:03;10.03;;;8.40;;
7029;SDS011;3556;53.500;10.176;2023-03-01T00:18:29;14.93;;;9.00;;
7029;SDS011;3556;53.500;10.176;2023-03-01T00:20:55;14.37;;;9.80;;
7029;SDS011;3556;53.500;10.176;2023-03-01T00:23:21;15.47;;;9.70;;
7029;SDS011;3556;53.500;10.176;2023-03-01T00:25:48;14.10;;;8.90;;
7029;SDS011;3556;53.500;10.176;2023-03-01T00:28:14;13.17;;;9.90;;
7029;SDS011;3556;53.500;10.176;2023-03-01T00:30:39;16.93;;;10.07;;
7029;SDS011;3556;53.500;10.176;2023-03-01T00:33:05;14.77;;;9.37;;
7029;SDS011;3556;53.500;10.176;2023-03-01T00:35:34;12.77;;;9.67;;
7029;SDS011;3556;53.500;10.176;2023-03-01T00:38:00;14.93;;;10.13;;
7029;SDS011;3556;53.500;10.176;2023-03-01T00:40:27;13.30;;;9.20;;
7029;SDS011;3556;53.500;10.176;2023-03-01T00:42:53;15.10;;;10.13;;
7029;SDS011;3556;53.500;10.176;2023-03-01T00:45:19;13.47;;;8.50;;
7029;SDS011;3556;53.500;10.176;2023-03-01T00:47:45;13.60;;;9.43;;
7029;SDS011;3556;53.500;10.176;2023-03-01T00:50:12;14.63;;;9.47;;
7029;SDS011;3556;53.500;10.176;2023-03-01T00:52:38;14.67;;;9.40;;
7029;SDS011;3556;53.500;10.176;2023-03-01T00:55:04;16.40;;;10.50;;
7029;SDS011;3556;53.500;10.176;2023-03-01T00:57:30;23.13;;;10.53;;
7029;SDS011;3556;53.500;10.176;2023-03-01T00:59:56;18.37;;;10.17;;
7029;SDS011;3556;53.500;10.176;2023-03-01T01:02:21;19.70;;;10.50;;
7029;SDS011;3556;53.500;10.176;2023-03-01T01:04:47;18.63;;;10.27;;
7029;SDS011;3556;53.500;10.176;2023-03-01T01:07:13;16.83;;;10.00;;
7029;SDS011;3556;53.500;10.176;2023-03-01T01:09:39;13.50;;;10.30;;
7029;SDS011;3556;53.500;10.176;2023-03-01T01:12:05;16.93;;;11.10;;
7029;SDS011;3556;53.500;10.176;2023-03-01T01:14:31;20.20;;;10.83;;
7029;SDS011;3556;53.500;10.176;2023-03-01T01:16:57;17.00;;;10.17;;
7029;SDS011;3556;53.500;10.176;2023-03-01T01:19:23;18.47;;;10.87;;
7029;SDS011;3556;53.500;10.176;2023-03-01T01:21:49;15.30;;;10.33;;
7029;SDS011;3556;53.500;10.176;2023-03-01T01:24:15;19.80;;;11.77;;
7029;SDS011;3556;53.500;10.176;2023-03-01T01:26:42;20.20;;;11.20;;
7029;SDS011;3556;53.500;10.176;2023-03-01T01:29:08;17.13;;;10.70;;
7029;SDS011;3556;53.500;10.176;2023-03-01T01:31:35;22.23;;;11.80;;
7029;SDS011;3556;53.500;10.176;2023-03-01T01:34:02;16.30;;;11.07;;
7029;SDS011;3556;53.500;10.176;2023-03-01T01:36:29;23.90;;;12.17;;
7029;SDS011;3556;53.500;10.176;2023-03-01T01:38:55;20.33;;;12.13;;
7029;SDS011;3556;53.500;10.176;2023-03-01T01:41:21;15.97;;;10.17;;
7029;SDS011;3556;53.500;10.176;2023-03-01T01:46:37;22.50;;;11.60;;
7029;SDS011;3556;53.500;10.176;2023-03-01T01:51:44;24.70;;;11.97;;
7029;SDS011;3556;53.500;10.176;2023-03-01T01:54:56;18.57;;;10.60;;
7029;SDS011;3556;53.500;10.176;2023-03-01T01:57:07;18.63;;;11.20;;
7029;SDS011;3556;53.500;10.176;2023-03-01T01:59:37;22.60;;;12.03;;
7029;SDS011;3556;53.500;10.176;2023-03-01T02:02:04;16.77;;;11.40;;
7029;SDS011;3556;53.500;10.176;2023-03-01T02:04:30;16.70;;;11.10;;
7029;SDS011;3556;53.500;10.176;2023-03-01T02:07:04;16.60;;;10.90;;
7029;SDS011;3556;53.500;10.176;2023-03-01T02:09:37;26.67;;;11.07;;
7029;SDS011;3556;53.500;10.176;2023-03-01T02:12:03;15.83;;;10.53;;
7029;SDS011;3556;53.500;10.176;2023-03-01T02:14:29;23.13;;;11.80;;
7029;SDS011;3556;53.500;10.176;2023-03-01T02:16:55;20.93;;;11.90;;
7029;SDS011;3556;53.500;10.176;2023-03-01T02:19:30;25.87;;;11.97;;
7029;SDS011;3556;53.500;10.176;2023-03-01T02:30:44;18.77;;;11.20;;
7029;SDS011;3556;53.500;10.176;2023-03-01T02:33:31;19.33;;;11.20;;
7029;SDS011;3556;53.500;10.176;2023-03-01T02:36:02;18.33;;;11.70;;
7029;SDS011;3556;53.500;10.176;2023-03-01T02:38:31;20.30;;;12.00;;
7029;SDS011;3556;53.500;10.176;2023-03-01T02:40:57;23.63;;;12.30;;
7029;SDS011;3556;53.500;10.176;2023-03-01T02:43:24;21.97;;;12.50;;
7029;SDS011;3556;53.500;10.176;2023-03-01T02:45:56;18.67;;;12.47;;
7029;SDS011;3556;53.500;10.176;2023-03-01T02:48:23;24.10;;;12.90;;
7029;SDS011;3556;53.500;10.176;2023-03-01T02:55:53;24.23;;;12.83;;
7029;SDS011;3556;53.500;10.176;2023-03-01T02:58:19;20.57;;;12.67;;
7029;SDS011;3556;53.500;10.176;2023-03-01T03:00:45;24.00;;;12.83;;
7029;SDS011;3556;53.500;10.176;2023-03-01T03:03:14;20.97;;;12.27;;
7029;SDS011;3556;53.500;10.176;2023-03-01T03:05:41;23.67;;;12.93;;
7029;SDS011;3556;53.500;10.176;2023-03-01T03:08:07;22.63;;;13.20;;
7029;SDS011;3556;53.500;10.176;2023-03-01T03:10:34;21.17;;;12.37;;
7029;SDS011;3556;53.500;10.176;2023-03-01T03:13:12;25.17;;;13.30;;
7029;SDS011;3556;53.500;10.176;2023-03-01T03:15:40;19.17;;;12.10;;
7029;SDS011;3556;53.500;10.176;2023-03-01T03:18:08;18.17;;;12.40;;
7029;SDS011;3556;53.500;10.176;2023-03-01T03:20:35;19.43;;;12.37;;
7029;SDS011;3556;53.500;10.176;2023-03-01T03:23:02;18.70;;;12.67;;
7029;SDS011;3556;53.500;10.176;2023-03-01T03:25:28;21.07;;;11.97;;
7029;SDS011;3556;53.500;10.176;2023-03-01T03:27:55;22.03;;;12.30;;
7029;SDS011;3556;53.500;10.176;2023-03-01T03:30:25;21.90;;;12.90;;
7029;SDS011;3556;53.500;10.176;2023-03-01T03:32:55;20.20;;;12.60;;
7029;SDS011;3556;53.500;10.176;2023-03-01T03:35:23;17.60;;;11.33;;
7029;SDS011;3556;53.500;10.176;2023-03-01T03:37:51;21.97;;;12.83;;
7029;SDS011;3556;53.500;10.176;2023-03-01T03:40:27;28.87;;;12.70;;
7029;SDS011;3556;53.500;10.176;2023-03-01T03:42:54;17.57;;;11.80;;
7029;SDS011;3556;53.500;10.176;2023-03-01T03:45:20;19.10;;;12.00;;
7029;SDS011;3556;53.500;10.176;2023-03-01T03:47:46;29.17;;;12.57;;
7029;SDS011;3556;53.500;10.176;2023-03-01T03:50:12;18.70;;;11.63;;
7029;SDS011;3556;53.500;10.176;2023-03-01T03:52:39;19.70;;;12.17;;
7029;SDS011;3556;53.500;10.176;2023-03-01T03:55:06;19.50;;;12.20;;
7029;SDS011;3556;53.500;10.176;2023-03-01T03:57:40;19.20;;;11.30;;
7029;SDS011;3556;53.500;10.176;2023-03-01T04:00:07;18.37;;;12.20;;
7029;SDS011;3556;53.500;10.176;2023-03-01T04:02:41;17.03;;;11.87;;
7029;SDS011;3556;53.500;10.176;2023-03-01T04:05:08;20.83;;;13.07;;
7029;SDS011;3556;53.500;10.176;2023-03-01T04:07:34;19.80;;;11.80;;
7029;SDS011;3556;53.500;10.176;2023-03-01T04:10:02;20.33;;;12.50;;
7029;SDS011;3556;53.500;10.176;2023-03-01T04:12:33;17.80;;;12.63;;
7029;SDS011;3556;53.500;10.176;2023-03-01T04:15:03;19.10;;;12.50;;
7029;SDS011;3556;53.500;10.176;2023-03-01T04:17:38;18.13;;;12.27;;
7029;SDS011;3556;53.500;10.176;2023-03-01T04:20:11;20.50;;;11.97;;
7029;SDS011;3556;53.500;10.176;2023-03-01T04:22:39;19.70;;;13.13;;
7029;SDS011;3556;53.500;10.176;2023-03-01T04:25:05;21.47;;;12.47;;
7029;SDS011;3556;53.500;10.176;2023-03-01T04:27:35;21.63;;;12.23;;
7029;SDS011;3556;53.500;10.176;2023-03-01T04:30:02;18.40;;;12.77;;
7029;SDS011;3556;53.500;10.176;2023-03-01T04:32:28;19.97;;;11.87;;
7029;SDS011;3556;53.500;10.176;2023-03-01T04:34:53;24.63;;;13.63;;
7029;SDS011;3556;53.500;10.176;2023-03-01T04:37:19;17.40;;;12.17;;
7029;SDS011;3556;53.500;10.176;2023-03-01T04:39:45;18.53;;;11.87;;
7029;SDS011;3556;53.500;10.176;2023-03-01T04:42:12;20.23;;;12.53;;
7029;SDS011;3556;53.500;10.176;2023-03-01T04:44:38;15.70;;;11.87;;
7029;SDS011;3556;53.500;10.176;2023-03-01T04:47:04;21.20;;;12.50;;
7029;SDS011;3556;53.500;10.176;2023-03-01T04:49:30;17.60;;;12.00;;
7029;SDS011;3556;53.500;10.176;2023-03-01T04:51:56;16.50;;;11.97;;
7029;SDS011;3556;53.500;10.176;2023-03-01T04:54:27;19.17;;;12.23;;
7029;SDS011;3556;53.500;10.176;2023-03-01T04:57:02;18.63;;;12.00;;
7029;SDS011;3556;53.500;10.176;2023-03-01T04:59:28;16.43;;;12.13;;
7029;SDS011;3556;53.500;10.176;2023-03-01T05:01:54;16.37;;;12.10;;
7029;SDS011;3556;53.500;10.176;2023-03-01T05:04:21;19.27;;;11.90;;
7029;SDS011;3556;53.500;10.176;2023-03-01T05:06:47;16.03;;;11.07;;
7029;SDS011;3556;53.500;10.176;2023-03-01T05:09:13;17.53;;;12.07;;
7029;SDS011;3556;53.500;10.176;2023-03-01T05:11:38;17.00;;;11.57;;
7029;SDS011;3556;53.500;10.176;2023-03-01T05:14:04;20.73;;;13.00;;
7029;SDS011;3556;53.500;10.176;2023-03-01T05:16:31;19.97;;;11.87;;
7029;SDS011;3556;53.500;10.176;2023-03-01T05:18:58;16.50;;;11.47;;
7029;SDS011;3556;53.500;10.176;2023-03-01T05:21:24;22.00;;;11.90;;
7029;SDS011;3556;53.500;10.176;2023-03-01T05:23:50;17.13;;;12.03;;
7029;SDS011;3556;53.500;10.176;2023-03-01T05:26:16;16.37;;;11.83;;
7029;SDS011;3556;53.500;10.176;2023-03-01T05:28:43;25.07;;;11.87;;
7029;SDS011;3556;53.500;10.176;2023-03-01T05:31:09;14.90;;;11.47;;
7029;SDS011;3556;53.500;10.176;2023-03-01T05:33:39;16.47;;;11.43;;
7029;SDS011;3556;53.500;10.176;2023-03-01T05:36:08;17.70;;;11.40;;
7029;SDS011;3556;53.500;10.176;2023-03-01T05:38:35;17.97;;;11.87;;
7029;SDS011;3556;53.500;10.176;2023-03-01T05:41:00;17.10;;;11.67;;
7029;SDS011;3556;53.500;10.176;2023-03-01T05:43:29;15.20;;;11.00;;
7029;SDS011;3556;53.500;10.176;2023-03-01T05:45:58;15.90;;;11.57;;
7029;SDS011;3556;53.500;10.176;2023-03-01T05:48:24;19.03;;;11.63;;
7029;SDS011;3556;53.500;10.176;2023-03-01T05:50:50;16.47;;;12.53;;
7029;SDS011;3556;53.500;10.176;2023-03-01T05:53:17;17.60;;;12.90;;
7029;SDS011;3556;53.500;10.176;2023-03-01T05:55:47;22.30;;;12.87;;
7029;SDS011;3556;53.500;10.176;2023-03-01T05:58:15;21.27;;;13.20;;
7029;SDS011;3556;53.500;10.176;2023-03-01T06:00:43;17.13;;;11.80;;
7029;SDS011;3556;53.500;10.176;2023-03-01T06:03:13;20.70;;;12.53;;
7029;SDS011;3556;53.500;10.176;2023-03-01T06:05:41;15.27;;;11.57;;
7029;SDS011;3556;53.500;10.176;2023-03-01T06:08:08;20.23;;;11.97;;
7029;SDS011;3556;53.500;10.176;2023-03-01T06:10:35;26.17;;;12.50;;
7029;SDS011;3556;53.500;10.176;2023-03-01T06:13:00;16.03;;;11.20;;
7029;SDS011;3556;53.500;10.176;2023-03-01T06:15:26;14.70;;;11.80;;
7029;SDS011;3556;53.500;10.176;2023-03-01T06:17:53;16.40;;;11.00;;
7029;SDS011;3556;53.500;10.176;2023-03-01T06:20:22;16.53;;;11.00;;
7029;SDS011;3556;53.500;10.176;2023-03-01T06:22:49;17.83;;;10.70;;
7029;SDS011;3556;53.500;10.176;2023-03-01T06:25:16;16.93;;;10.87;;
7029;SDS011;3556;53.500;10.176;2023-03-01T06:27:43;13.80;;;9.90;;
7029;SDS011;3556;53.500;10.176;2023-03-01T06:30:12;16.53;;;10.93;;
7029;SDS011;3556;53.500;10.176;2023-03-01T06:32:39;15.30;;;11.30;;
7029;SDS011;3556;53.500;10.176;2023-03-01T06:35:11;15.23;;;10.30;;
7029;SDS011;3556;53.500;10.176;2023-03-01T06:37:38;17.73;;;10.20;;
7029;SDS011;3556;53.500;10.176;2023-03-01T06:40:04;20.57;;;10.33;;
7029;SDS011;3556;53.500;10.176;2023-03-01T06:42:37;17.57;;;11.00;;
7029;SDS011;3556;53.500;10.176;2023-03-01T06:45:04;17.83;;;10.57;;
7029;SDS011;3556;53.500;10.176;2023-03-01T06:47:31;16.77;;;11.50;;
7029;SDS011;3556;53.500;10.176;2023-03-01T06:49:58;17.57;;;11.13;;
7029;SDS011;3556;53.500;10.176;2023-03-01T06:52:24;21.40;;;11.00;;
7029;SDS011;3556;53.500;10.176;2023-03-01T06:54:50;37.07;;;10.77;;
7029;SDS011;3556;53.500;10.176;2023-03-01T06:57:15;15.90;;;12.00;;
7029;SDS011;3556;53.500;10.176;2023-03-01T06:59:41;14.83;;;11.10;;
7029;SDS011;3556;53.500;10.176;2023-03-01T07:02:09;15.60;;;11.20;;
7029;SDS011;3556;53.500;10.176;2023-03-01T07:04:36;17.77;;;10.20;;
7029;SDS011;3556;53.500;10.176;2023-03-01T07:07:02;17.97;;;11.37;;
7029;SDS011;3556;53.500;10.176;2023-03-01T07:09:28;18.27;;;10.40;;
7029;SDS011;3556;53.500;10.176;2023-03-01T07:11:53;18.90;;;12.40;;
7029;SDS011;3556;53.500;10.176;2023-03-01T07:14:19;16.03;;;11.77;;
7029;SDS011;3556;53.500;10.176;2023-03-01T07:16:45;15.57;;;10.47;;
7029;SDS011;3556;53.500;10.176;2023-03-01T07:19:11;17.73;;;10.17;;
7029;SDS011;3556;53.500;10.176;2023-03-01T07:21:36;14.60;;;10.87;;
7029;SDS011;3556;53.500;10.176;2023-03-01T07:24:06;22.33;;;12.80;;
7029;SDS011;3556;53.500;10.176;2023-03-01T07:26:32;18.83;;;11.80;;
7029;SDS011;3556;53.500;10.176;2023-03-01T07:28:58;17.47;;;11.70;;
7029;SDS011;3556;53.500;10.176;2023-03-01T07:31:25;15.17;;;11.27;;
7029;SDS011;3556;53.500;10.176;2023-03-01T07:33:53;14.87;;;11.07;;
7029;SDS011;3556;53.500;10.176;2023-03-01T07:36:21;14.53;;;10.03;;
7029;SDS011;3556;53.500;10.176;2023-03-01T07:38:48;12.80;;;9.20;;
7029;SDS011;3556;53.500;10.176;2023-03-01T07:41:13;18.13;;;10.20;;
7029;SDS011;3556;53.500;10.176;2023-03-01T07:43:39;21.27;;;10.00;;
7029;SDS011;3556;53.500;10.176;2023-03-01T07:46:05;17.60;;;9.27;;
7029;SDS011;3556;53.500;10.176;2023-03-01T07:48:32;11.73;;;8.63;;
7029;SDS011;3556;53.500;10.176;2023-03-01T07:50:59;11.13;;;9.57;;
7029;SDS011;3556;53.500;10.176;2023-03-01T07:53:29;12.17;;;8.90;;
7029;SDS011;3556;53.500;10.176;2023-03-01T07:56:03;11.10;;;9.33;;
7029;SDS011;3556;53.500;10.176;2023-03-01T07:58:30;23.23;;;8.80;;
7029;SDS011;3556;53.500;10.176;2023-03-01T08:00:56;14.87;;;9.40;;
7029;SDS011;3556;53.500;10.176;2023-03-01T08:03:25;18.73;;;9.30;;
7029;SDS011;3556;53.500;10.176;2023-03-01T08:05:51;24.90;;;12.63;;
7029;SDS011;3556;53.500;10.176;2023-03-01T08:08:16;51.87;;;20.53;;
7029;SDS011;3556;53.500;10.176;2023-03-01T08:10:42;20.37;;;10.47;;
7029;SDS011;3556;53.500;10.176;2023-03-01T08:13:07;14.93;;;9.77;;
7029;SDS011;3556;53.500;10.176;2023-03-01T08:15:33;16.43;;;9.30;;
7029;SDS011;3556;53.500;10.176;2023-03-01T08:17:59;24.63;;;10.67;;
7029;SDS011;3556;53.500;10.176;2023-03-01T08:20:24;19.43;;;10.50;;
7029;SDS011;3556;53.500;10.176;2023-03-01T08:22:50;18.50;;;10.83;;
7029;SDS011;3556;53.500;10.176;2023-03-01T08:25:15;17.00;;;11.40;;
7029;SDS011;3556;53.500;10.176;2023-03-01T08:27:41;20.03;;;12.57;;
7029;SDS011;3556;53.500;10.176;2023-03-01T08:30:07;37.83;;;15.63;;
7029;SDS011;3556;53.500;10.176;2023-03-01T08:32:37;21.50;;;12.40;;
7029;SDS011;3556;53.500;10.176;2023-03-01T08:35:03;28.00;;;13.17;;
7029;SDS011;3556;53.500;10.176;2023-03-01T08:37:29;23.57;;;14.80;;
7029;SDS011;3556;53.500;10.176;2023-03-01T08:39:58;20.67;;;11.10;;
7029;SDS011;3556;53.500;10.176;2023-03-01T08:42:28;17.67;;;11.63;;
7029;SDS011;3556;53.500;10.176;2023-03-01T08:44:54;17.23;;;11.50;;
7029;SDS011;3556;53.500;10.176;2023-03-01T08:47:19;28.70;;;11.40;;
7029;SDS011;3556;53.500;10.176;2023-03-01T08:49:45;226.53;;;43.40;;
7029;SDS011;3556;53.500;10.176;2023-03-01T08:52:11;403.27;;;74.40;;
7029;SDS011;3556;53.500;10.176;2023-03-01T08:54:36;60.73;;;18.73;;
7029;SDS011;3556;53.500;10.176;2023-03-01T08:57:02;19.40;;;11.27;;
7029;SDS011;3556;53.500;10.176;2023-03-01T08:59:28;27.27;;;11.93;;
7029;SDS011;3556;53.500;10.176;2023-03-01T09:01:54;37.60;;;12.50;;
7029;SDS011;3556;53.500;10.176;2023-03-01T09:04:20;50.57;;;15.20;;
7029;SDS011;3556;53.500;10.176;2023-03-01T09:06:46;29.03;;;11.20;;
7029;SDS011;3556;53.500;10.176;2023-03-01T09:09:15;17.60;;;9.73;;
7029;SDS011;3556;53.500;10.176;2023-03-01T09:11:42;32.63;;;10.30;;
7029;SDS011;3556;53.500;10.176;2023-03-01T09:14:11;30.57;;;11.03;;
7029;SDS011;3556;53.500;10.176;2023-03-01T09:16:37;20.20;;;11.00;;
7029;SDS011;3556;53.500;10.176;2023-03-01T09:19:03;22.63;;;9.93;;
7029;SDS011;3556;53.500;10.176;2023-03-01T09:21:29;17.23;;;10.73;;
7029;SDS011;3556;53.500;10.176;2023-03-01T09:23:55;21.30;;;10.53;;
7029;SDS011;3556;53.500;10.176;2023-03-01T09:26:22;30.50;;;10.70;;
7029;SDS011;3556;53.500;10.176;2023-03-01T09:28:48;18.83;;;10.87;;
7029;SDS011;3556;53.500;10.176;2023-03-01T09:31:16;20.83;;;11.17;;
7029;SDS011;3556;53.500;10.176;2023-03-01T09:33:44;24.93;;;11.70;;
7029;SDS011;3556;53.500;10.176;2023-03-01T09:36:13;22.60;;;11.70;;
7029;SDS011;3556;53.500;10.176;2023-03-01T09:38:40;22.00;;;12.43;;
7029;SDS011;3556;53.500;10.176;2023-03-01T09:41:48;21.40;;;12.00;;
7029;SDS011;3556;53.500;10.176;2023-03-01T09:44:21;20.73;;;12.23;;
7029;SDS011;3556;53.500;10.176;2023-03-01T09:46:55;21.03;;;12.97;;
7029;SDS011;3556;53.500;10.176;2023-03-01T09:49:23;19.73;;;12.63;;
7029;SDS011;3556;53.500;10.176;2023-03-01T09:51:54;36.53;;;13.17;;
7029;SDS011;3556;53.500;10.176;2023-03-01T09:54:21;20.63;;;14.00;;
7029;SDS011;3556;53.500;10.176;2023-03-01T09:56:53;20.10;;;13.57;;
7029;SDS011;3556;53.500;10.176;2023-03-01T09:59:30;27.83;;;13.60;;
7029;SDS011;3556;53.500;10.176;2023-03-01T10:05:44;22.97;;;13.93;;
7029;SDS011;3556;53.500;10.176;2023-03-01T10:10:54;17.20;;;12.40;;
7029;SDS011;3556;53.500;10.176;2023-03-01T10:13:25;21.30;;;12.70;;
7029;SDS011;3556;53.500;10.176;2023-03-01T10:19:14;21.23;;;11.93;;
7029;SDS011;3556;53.500;10.176;2023-03-01T10:21:49;16.13;;;10.77;;
7029;SDS011;3556;53.500;10.176;2023-03-01T10:24:16;17.27;;;11.20;;
7029;SDS011;3556;53.500;10.176;2023-03-01T10:26:51;17.17;;;10.50;;
7029;SDS011;3556;53.500;10.176;2023-03-01T10:29:23;18.40;;;10.60;;
7029;SDS011;3556;53.500;10.176;2023-03-01T10:32:02;15.90;;;10.30;;
7029;SDS011;3556;53.500;10.176;2023-03-01T10:34:31;14.30;;;9.73;;
7029;SDS011;3556;53.500;10.176;2023-03-01T10:39:36;10.50;;;9.17;;
7029;SDS011;3556;53.500;10.176;2023-03-01T10:42:19;11.93;;;9.63;;
7029;SDS011;3556;53.500;10.176;2023-03-01T10:44:53;12.17;;;10.50;;
7029;SDS011;3556;53.500;10.176;2023-03-01T10:52:40;12.10;;;10.23;;
7029;SDS011;3556;53.500;10.176;2023-03-01T10:57:38;24.30;;;13.50;;
7029;SDS011;3556;53.500;10.176;2023-03-01T11:00:16;20.43;;;14.13;;
7029;SDS011;3556;53.500;10.176;2023-03-01T11:03:10;23.20;;;15.63;;
7029;SDS011;3556;53.500;10.176;2023-03-01T11:05:58;21.13;;;14.40;;
7029;SDS011;3556;53.500;10.176;2023-03-01T11:16:36;15.80;;;12.97;;
7029;SDS011;3556;53.500;10.176;2023-03-01T11:21:40;16.50;;;12.73;;
7029;SDS011;3556;53.500;10.176;2023-03-01T11:24:29;14.13;;;10.40;;
7029;SDS011;3556;53.500;10.176;2023-03-01T11:27:08;15.80;;;11.70;;
7029;SDS011;3556;53.500;10.176;2023-03-01T11:29:44;14.73;;;11.23;;
7029;SDS011;3556;53.500;10.176;2023-03-01T11:32:16;12.57;;;10.00;;
7029;SDS011;3556;53.500;10.176;2023-03-01T11:34:50;9.73;;;8.40;;
7029;SDS011;3556;53.500;10.176;2023-03-01T11:45:32;11.07;;;9.97;;
7029;SDS011;3556;53.500;10.176;2023-03-01T11:49:18;10.73;;;8.70;;
7029;SDS011;3556;53.500;10.176;2023-03-01T12:00:06;9.80;;;8.80;;
7029;SDS011;3556;53.500;10.176;2023-03-01T12:02:56;9.37;;;8.57;;
7029;SDS011;3556;53.500;10.176;2023-03-01T12:05:35;10.67;;;9.60;;
7029;SDS011;3556;53.500;10.176;2023-03-01T12:08:25;9.27;;;8.37;;
7029;SDS011;3556;53.500;10.176;2023-03-01T12:13:47;9.67;;;8.87;;
7029;SDS011;3556;53.500;10.176;2023-03-01T12:16:38;10.20;;;9.03;;
7029;SDS011;3556;53.500;10.176;2023-03-01T12:30:46;15.10;;;8.57;;
7029;SDS011;3556;53.500;10.176;2023-03-01T12:38:59;8.77;;;7.97;;
7029;SDS011;3556;53.500;10.176;2023-03-01T12:49:23;9.90;;;9.00;;
7029;SDS011;3556;53.500;10.176;2023-03-01T12:51:55;8.57;;;7.87;;
7029;SDS011;3556;53.500;10.176;2023-03-01T12:54:28;9.70;;;8.87;;
7029;SDS011;3556;53.500;10.176;2023-03-01T12:56:57;8.97;;;8.37;;
7029;SDS011;3556;53.500;10.176;2023-03-01T13:04:40;10.50;;;9.40;;
7029;SDS011;3556;53.500;10.176;2023-03-01T13:07:16;9.73;;;8.93;;
7029;SDS011;3556;53.500;10.176;2023-03-01T13:20:19;8.70;;;8.00;;
7029;SDS011;3556;53.500;10.176;2023-03-01T13:23:29;8.57;;;7.93;;
7029;SDS011;3556;53.500;10.176;2023-03-01T13:33:46;5.87;;;5.43;;
7029;SDS011;3556;53.500;10.176;2023-03-01T13:36:45;6.60;;;6.20;;
7029;SDS011;3556;53.500;10.176;2023-03-01T13:41:53;5.53;;;5.20;;
7029;SDS011;3556;53.500;10.176;2023-03-01T13:46:50;5.37;;;5.17;;
7029;SDS011;3556;53.500;10.176;2023-03-01T13:49:21;6.30;;;5.87;;
7029;SDS011;3556;53.500;10.176;2023-03-01T13:51:50;5.70;;;5.43;;
7029;SDS011;3556;53.500;10.176;2023-03-01T13:54:19;5.57;;;5.10;;
7029;SDS011;3556;53.500;10.176;2023-03-01T13:56:58;5.53;;;5.13;;
7029;SDS011;3556;53.500;10.176;2023-03-01T13:59:26;4.70;;;4.50;;
7029;SDS011;3556;53.500;10.176;2023-03-01T14:01:56;5.43;;;5.17;;
7029;SDS011;3556;53.500;10.176;2023-03-01T14:04:24;4.60;;;4.50;;
7029;SDS011;3556;53.500;10.176;2023-03-01T14:07:08;4.80;;;4.60;;
7029;SDS011;3556;53.500;10.176;2023-03-01T14:09:44;4.50;;;4.27;;
7029;SDS011;3556;53.500;10.176;2023-03-01T14:14:41;6.07;;;5.57;;
7029;SDS011;3556;53.500;10.176;2023-03-01T14:20:20;6.20;;;5.80;;
7029;SDS011;3556;53.500;10.176;2023-03-01T14:22:52;6.10;;;5.70;;
7029;SDS011;3556;53.500;10.176;2023-03-01T14:30:50;4.80;;;4.50;;
7029;SDS011;3556;53.500;10.176;2023-03-01T14:33:28;5.97;;;5.63;;
7029;SDS011;3556;53.500;10.176;2023-03-01T14:38:40;5.47;;;5.17;;
7029;SDS011;3556;53.500;10.176;2023-03-01T14:41:10;5.10;;;4.90;;
7029;SDS011;3556;53.500;10.176;2023-03-01T14:48:58;4.40;;;4.30;;
7029;SDS011;3556;53.500;10.176;2023-03-01T14:52:03;5.00;;;4.80;;
7029;SDS011;3556;53.500;10.176;2023-03-01T14:54:40;5.53;;;5.30;;
7029;SDS011;3556;53.500;10.176;2023-03-01T14:57:22;4.67;;;4.47;;
7029;SDS011;3556;53.500;10.176;2023-03-01T14:59:49;4.97;;;4.77;;
7029;SDS011;3556;53.500;10.176;2023-03-01T15:02:19;5.43;;;5.23;;
7029;SDS011;3556;53.500;10.176;2023-03-01T15:04:49;5.27;;;5.07;;
7029;SDS011;3556;53.500;10.176;2023-03-01T15:07:26;5.30;;;5.10;;
7029;SDS011;3556;53.500;10.176;2023-03-01T15:09:57;6.00;;;5.70;;
7029;SDS011;3556;53.500;10.176;2023-03-01T15:14:52;6.47;;;6.13;;
7029;SDS011;3556;53.500;10.176;2023-03-01T15:17:26;6.80;;;6.30;;
7029;SDS011;3556;53.500;10.176;2023-03-01T15:19:57;6.47;;;5.97;;
7029;SDS011;3556;53.500;10.176;2023-03-01T15:22:24;6.00;;;5.70;;
7029;SDS011;3556;53.500;10.176;2023-03-01T15:24:51;7.57;;;7.07;;
7029;SDS011;3556;53.500;10.176;2023-03-01T15:27:18;6.87;;;6.57;;
7029;SDS011;3556;53.500;10.176;2023-03-01T15:29:50;8.37;;;7.67;;
7029;SDS011;3556;53.500;10.176;2023-03-01T15:32:29;5.77;;;5.57;;
7029;SDS011;3556;53.500;10.176;2023-03-01T15:38:23;5.73;;;5.53;;
7029;SDS011;3556;53.500;10.176;2023-03-01T15:40:58;4.80;;;4.50;;
7029;SDS011;3556;53.500;10.176;2023-03-01T15:43:42;5.17;;;4.97;;
7029;SDS011;3556;53.500;10.176;2023-03-01T15:48:48;4.40;;;4.30;;
7029;SDS011;3556;53.500;10.176;2023-03-01T15:51:17;5.20;;;5.00;;
7029;SDS011;3556;53.500;10.176;2023-03-01T15:53:51;5.53;;;5.33;;
7029;SDS011;3556;53.500;10.176;2023-03-01T15:56:18;4.90;;;4.70;;
7029;SDS011;3556;53.500;10.176;2023-03-01T15:58:43;5.87;;;5.57;;
7029;SDS011;3556;53.500;10.176;2023-03-01T16:01:13;5.83;;;5.50;;
7029;SDS011;3556;53.500;10.176;2023-03-01T16:03:41;5.93;;;5.63;;
7029;SDS011;3556;53.500;10.176;2023-03-01T16:06:08;10.63;;;5.90;;
7029;SDS011;3556;53.500;10.176;2023-03-01T16:08:35;5.90;;;5.60;;
7029;SDS011;3556;53.500;10.176;2023-03-01T16:11:02;5.80;;;5.50;;
7029;SDS011;3556;53.500;10.176;2023-03-01T16:13:30;6.53;;;6.03;;
7029;SDS011;3556;53.500;10.176;2023-03-01T16:15:57;6.67;;;6.07;;
7029;SDS011;3556;53.500;10.176;2023-03-01T16:18:23;6.50;;;6.10;;
7029;SDS011;3556;53.500;10.176;2023-03-01T16:20:49;6.73;;;6.23;;
7029;SDS011;3556;53.500;10.176;2023-03-01T16:23:14;7.40;;;6.80;;
7029;SDS011;3556;53.500;10.176;2023-03-01T16:25:40;8.90;;;7.77;;
7029;SDS011;3556;53.500;10.176;2023-03-01T16:28:06;9.77;;;7.53;;
7029;SDS011;3556;53.500;10.176;2023-03-01T16:30:35;8.83;;;7.83;;
7029;SDS011;3556;53.500;10.176;2023-03-01T16:33:02;13.73;;;8.13;;
7029;SDS011;3556;53.500;10.176;2023-03-01T16:35:31;8.20;;;7.40;;
7029;SDS011;3556;53.500;10.176;2023-03-01T16:37:57;9.40;;;7.00;;
7029;SDS011;3556;53.500;10.176;2023-03-01T16:40:25;7.67;;;7.00;;
7029;SDS011;3556;53.500;10.176;2023-03-01T16:42:53;7.23;;;6.53;;
7029;SDS011;3556;53.500;10.176;2023-03-01T16:45:20;7.10;;;6.40;;
7029;SDS011;3556;53.500;10.176;2023-03-01T16:47:46;6.93;;;6.33;;
7029;SDS011;3556;53.500;10.176;2023-03-01T16:50:11;5.90;;;5.50;;
7029;SDS011;3556;53.500;10.176;2023-03-01T16:52:37;6.10;;;5.60;;
7029;SDS011;3556;53.500;10.176;2023-03-01T16:55:03;6.23;;;5.40;;
7029;SDS011;3556;53.500;10.176;2023-03-01T16:57:30;5.50;;;5.10;;
7029;SDS011;3556;53.500;10.176;2023-03-01T16:59:58;5.80;;;5.03;;
7029;SDS011;3556;53.500;10.176;2023-03-01T17:02:23;5.27;;;5.00;;
7029;SDS011;3556;53.500;10.176;2023-03-01T17:04:52;5.37;;;5.03;;
7029;SDS011;3556;53.500;10.176;2023-03-01T17:07:19;5.03;;;4.80;;
7029;SDS011;3556;53.500;10.176;2023-03-01T17:09:45;5.67;;;5.37;;
7029;SDS011;3556;53.500;10.176;2023-03-01T17:12:11;5.30;;;5.00;;
7029;SDS011;3556;53.500;10.176;2023-03-01T17:14:37;6.00;;;5.60;;
7029;SDS011;3556;53.500;10.176;2023-03-01T17:17:06;5.87;;;5.40;;
7029;SDS011;3556;53.500;10.176;2023-03-01T17:19:32;6.30;;;5.90;;
7029;SDS011;3556;53.500;10.176;2023-03-01T17:22:00;7.07;;;6.57;;
7029;SDS011;3556;53.500;10.176;2023-03-01T17:24:27;7.70;;;7.10;;
7029;SDS011;3556;53.500;10.176;2023-03-01T17:26:54;6.50;;;5.63;;